createdAt,value
2023-05-06T00:01:21.401Z,2.00
2023-05-06T00:03:48.949Z,1.80
2023-05-06T00:06:16.482Z,2.07
2023-05-06T00:08:43.862Z,2.10
2023-05-06T00:11:11.733Z,1.80
2023-05-06T00:13:39.104Z,2.03
2023-05-06T00:16:06.615Z,2.20
2023-05-06T00:18:33.955Z,2.10
2023-05-06T00:21:01.348Z,2.27
2023-05-06T00:23:28.719Z,2.13
2023-05-06T00:25:56.109Z,2.23
2023-05-06T00:28:23.512Z,2.50
2023-05-06T00:30:51.046Z,2.27
2023-05-06T00:33:18.425Z,2.30
2023-05-06T00:35:45.810Z,2.00
2023-05-06T00:38:15.138Z,2.07
2023-05-06T00:40:42.496Z,2.00
2023-05-06T00:43:09.808Z,2.40
2023-05-06T00:45:37.539Z,2.43
2023-05-06T00:48:05.271Z,2.20
2023-05-06T00:50:33.457Z,2.30
2023-05-06T00:53:02.015Z,1.77
2023-05-06T00:55:29.807Z,2.80
2023-05-06T00:57:57.535Z,2.33
2023-05-06T01:00:24.875Z,2.33
2023-05-06T01:02:52.394Z,2.90
2023-05-06T01:05:22.025Z,2.60
2023-05-06T01:08:03.455Z,2.60
2023-05-06T01:10:41.248Z,2.60
2023-05-06T01:13:16.355Z,3.30
2023-05-06T01:15:45.359Z,3.33
2023-05-06T01:18:14.271Z,2.90
2023-05-06T01:20:42.445Z,3.03
2023-05-06T01:23:11.447Z,3.20
2023-05-06T01:25:38.896Z,3.00
2023-05-06T01:28:08.201Z,2.60
2023-05-06T01:30:37.135Z,2.60
2023-05-06T01:33:06.052Z,2.97
2023-05-06T01:35:37.891Z,2.83
2023-05-06T01:38:06.876Z,3.20
2023-05-06T01:40:34.542Z,3.10
2023-05-06T01:43:03.416Z,3.37
2023-05-06T01:45:31.972Z,3.40
2023-05-06T01:47:59.922Z,3.00
2023-05-06T01:50:27.992Z,3.53
2023-05-06T01:52:59.886Z,3.37
2023-05-06T01:55:27.488Z,3.30
2023-05-06T01:57:56.336Z,3.70
2023-05-06T02:00:25.713Z,3.73
2023-05-06T02:02:53.311Z,4.53
2023-05-06T02:05:20.861Z,4.00
2023-05-06T02:07:48.272Z,3.73
2023-05-06T02:10:15.721Z,3.87
2023-05-06T02:12:43.134Z,4.23
2023-05-06T02:15:10.839Z,3.90
2023-05-06T02:17:38.520Z,3.87
2023-05-06T02:20:06.288Z,3.80
2023-05-06T02:22:33.615Z,4.37
2023-05-06T02:25:01.364Z,4.00
2023-05-06T02:27:28.754Z,5.37
2023-05-06T02:29:56.143Z,4.20
2023-05-06T02:32:23.530Z,4.73
2023-05-06T02:34:51.560Z,5.10
2023-05-06T02:37:18.974Z,5.07
2023-05-06T02:39:46.359Z,4.37
2023-05-06T02:42:14.567Z,5.60
2023-05-06T02:44:42.199Z,5.37
2023-05-06T02:47:09.576Z,4.90
2023-05-06T02:49:36.970Z,4.50
2023-05-06T02:52:04.489Z,4.70
2023-05-06T02:54:31.880Z,5.60
2023-05-06T02:56:59.286Z,4.30
2023-05-06T02:59:26.664Z,4.70
2023-05-06T03:01:53.974Z,4.40
2023-05-06T03:04:21.423Z,5.10
2023-05-06T03:06:48.808Z,3.93
2023-05-06T03:09:16.184Z,3.93
2023-05-06T03:11:43.602Z,4.80
2023-05-06T03:14:10.959Z,3.80
2023-05-06T03:16:38.400Z,4.00
2023-05-06T03:19:06.387Z,4.60
2023-05-06T03:21:33.830Z,4.13
2023-05-06T03:24:01.321Z,4.57
2023-05-06T03:26:28.703Z,4.70
2023-05-06T03:28:56.085Z,4.40
2023-05-06T03:31:23.550Z,4.80
2023-05-06T03:33:50.873Z,4.20
2023-05-06T03:36:18.272Z,4.37
2023-05-06T03:38:45.638Z,4.97
2023-05-06T03:41:13.022Z,4.97
2023-05-06T03:43:40.423Z,4.87
2023-05-06T03:46:07.865Z,4.20
2023-05-06T03:48:35.379Z,5.27
2023-05-06T03:51:03.036Z,3.70
2023-05-06T03:53:30.487Z,4.37
2023-05-06T03:55:57.803Z,4.50
2023-05-06T03:58:25.257Z,5.27
2023-05-06T04:00:52.909Z,4.70
2023-05-06T04:03:20.492Z,4.33
2023-05-06T04:05:49.317Z,4.50
2023-05-06T04:08:17.173Z,4.90
2023-05-06T04:10:44.786Z,4.27
2023-05-06T04:13:12.219Z,4.43
2023-05-06T04:15:41.225Z,4.10
2023-05-06T04:18:08.641Z,5.37
2023-05-06T04:20:36.267Z,4.70
2023-05-06T04:23:03.793Z,4.27
2023-05-06T04:25:31.107Z,3.57
2023-05-06T04:27:58.511Z,3.90
2023-05-06T04:30:25.879Z,3.33
2023-05-06T04:32:53.326Z,4.00
2023-05-06T04:35:21.669Z,3.47
2023-05-06T04:37:49.045Z,3.27
2023-05-06T04:40:17.802Z,3.00
2023-05-06T04:42:45.184Z,2.70
2023-05-06T04:45:12.588Z,2.53
2023-05-06T04:47:40.749Z,2.73
2023-05-06T04:50:08.566Z,2.60
2023-05-06T04:52:36.105Z,2.73
2023-05-06T04:55:03.613Z,2.90
2023-05-06T04:57:31.970Z,2.50
2023-05-06T04:59:59.346Z,2.40
2023-05-06T05:02:26.881Z,2.30
2023-05-06T05:04:54.313Z,2.23
2023-05-06T05:07:21.676Z,2.73
2023-05-06T05:09:49.047Z,2.57
2023-05-06T05:12:16.473Z,2.50
2023-05-06T05:14:43.946Z,2.37
2023-05-06T05:17:11.385Z,2.93
2023-05-06T05:19:38.696Z,2.30
2023-05-06T05:22:06.199Z,2.20
2023-05-06T05:26:56.791Z,2.50
2023-05-06T05:29:24.173Z,1.97
2023-05-06T05:31:51.569Z,2.30
2023-05-06T05:34:19.022Z,3.10
2023-05-06T05:36:46.452Z,2.83
2023-05-06T05:39:13.845Z,4.07
2023-05-06T05:41:41.288Z,4.53
2023-05-06T05:44:08.687Z,3.83
2023-05-06T05:46:36.126Z,4.90
2023-05-06T05:49:03.619Z,5.00
2023-05-06T05:51:30.942Z,5.00
2023-05-06T05:53:58.380Z,5.93
2023-05-06T05:56:25.771Z,5.60
2023-05-06T05:58:53.616Z,4.53
2023-05-06T06:01:21.179Z,4.10
2023-05-06T06:03:48.750Z,3.87
2023-05-06T06:06:16.451Z,3.30
2023-05-06T06:08:43.841Z,3.20
2023-05-06T06:11:11.856Z,3.13
2023-05-06T06:13:39.278Z,2.50
2023-05-06T06:16:06.881Z,3.00
2023-05-06T06:18:34.280Z,2.70
2023-05-06T06:21:01.663Z,2.47
2023-05-06T06:23:29.066Z,1.90
2023-05-06T06:25:56.449Z,1.90
2023-05-06T06:28:23.906Z,2.40
2023-05-06T06:30:51.310Z,1.90
2023-05-06T06:33:18.706Z,1.77
2023-05-06T06:35:46.165Z,1.60
2023-05-06T06:38:13.563Z,1.50
2023-05-06T06:40:40.935Z,1.20
2023-05-06T06:43:08.380Z,1.10
2023-05-06T06:45:35.836Z,1.30
2023-05-06T06:48:03.380Z,1.30
2023-05-06T06:50:30.763Z,1.43
2023-05-06T06:52:58.144Z,1.23
2023-05-06T06:55:25.614Z,1.40
2023-05-06T06:57:53.026Z,1.10
2023-05-06T07:00:20.403Z,1.17
2023-05-06T07:02:48.451Z,1.83
2023-05-06T07:05:16.010Z,1.60
2023-05-06T07:07:43.410Z,1.40
2023-05-06T07:10:10.872Z,1.20
2023-05-06T07:12:38.269Z,1.10
2023-05-06T07:15:06.886Z,1.20
2023-05-06T07:17:34.330Z,1.00
2023-05-06T07:20:01.752Z,1.20
2023-05-06T07:22:29.419Z,1.53
2023-05-06T07:24:56.804Z,1.97
2023-05-06T07:27:24.176Z,2.83
2023-05-06T07:29:51.554Z,1.70
2023-05-06T07:32:18.940Z,1.53
2023-05-06T07:34:46.323Z,1.30
2023-05-06T07:37:13.913Z,1.70
2023-05-06T07:39:41.272Z,1.80
2023-05-06T07:42:10.309Z,1.20
2023-05-06T07:44:37.715Z,3.77
2023-05-06T07:47:05.254Z,4.67
2023-05-06T07:49:33.951Z,1.00
2023-05-06T07:52:03.386Z,0.93
2023-05-06T07:54:31.410Z,0.80
2023-05-06T07:56:58.859Z,1.00
2023-05-06T07:59:26.595Z,1.00
2023-05-06T08:01:54.005Z,1.10
2023-05-06T08:04:21.869Z,1.63
2023-05-06T08:06:49.367Z,1.33
2023-05-06T08:09:22.719Z,2.03
2023-05-06T08:11:45.974Z,1.70
2023-05-06T08:14:13.359Z,1.80
2023-05-06T08:16:41.172Z,2.07
2023-05-06T08:19:08.697Z,2.67
2023-05-06T08:21:36.108Z,1.60
2023-05-06T08:24:03.562Z,1.70
2023-05-06T08:26:30.997Z,1.27
2023-05-06T08:28:59.414Z,1.27
2023-05-06T08:31:26.922Z,1.63
2023-05-06T08:33:55.042Z,1.40
2023-05-06T08:36:22.658Z,1.10
2023-05-06T08:38:50.941Z,1.20
2023-05-06T08:41:19.302Z,0.90
2023-05-06T08:43:47.166Z,0.97
2023-05-06T08:46:15.062Z,1.10
2023-05-06T08:48:42.884Z,1.10
2023-05-06T08:51:10.369Z,1.10
2023-05-06T08:53:39.583Z,1.20
2023-05-06T08:56:11.427Z,1.10
2023-05-06T08:58:39.385Z,3.50
2023-05-06T09:01:06.814Z,1.33
2023-05-06T09:03:34.311Z,1.37
2023-05-06T09:06:02.120Z,1.70
2023-05-06T09:08:29.591Z,1.70
2023-05-06T09:10:57.132Z,1.47
2023-05-06T09:13:24.531Z,1.37
2023-05-06T09:15:53.618Z,1.30
2023-05-06T09:18:20.984Z,1.27
2023-05-06T09:20:49.343Z,1.20
2023-05-06T09:23:18.538Z,1.23
2023-05-06T09:25:46.780Z,1.23
2023-05-06T09:28:14.456Z,0.90
2023-05-06T09:30:43.388Z,1.10
2023-05-06T09:33:11.037Z,1.13
2023-05-06T09:35:41.994Z,1.10
2023-05-06T09:38:09.708Z,1.30
2023-05-06T09:40:37.501Z,1.83
2023-05-06T09:43:05.810Z,1.87
2023-05-06T09:45:33.407Z,1.90
2023-05-06T09:48:01.250Z,3.87
2023-05-06T09:50:28.908Z,2.40
2023-05-06T09:52:56.779Z,1.40
2023-05-06T09:55:25.899Z,1.20
2023-05-06T09:57:53.580Z,1.40
2023-05-06T10:00:23.280Z,1.37
2023-05-06T10:02:51.157Z,1.40
2023-05-06T10:05:18.920Z,1.27
2023-05-06T10:07:48.029Z,1.60
2023-05-06T10:10:16.194Z,1.30
2023-05-06T10:12:43.678Z,1.20
2023-05-06T10:15:11.428Z,1.17
2023-05-06T10:17:40.611Z,1.30
2023-05-06T10:20:09.354Z,1.00
2023-05-06T10:22:50.291Z,1.23
2023-05-06T10:25:19.217Z,1.20
2023-05-06T10:27:46.946Z,1.10
2023-05-06T10:30:16.837Z,1.40
2023-05-06T10:32:45.131Z,1.10
2023-05-06T10:35:19.960Z,0.90
2023-05-06T10:37:48.030Z,1.40
2023-05-06T10:40:15.468Z,1.10
2023-05-06T10:42:42.903Z,1.00
2023-05-06T10:45:11.141Z,1.00
2023-05-06T10:47:52.292Z,1.07
2023-05-06T10:50:22.991Z,1.20
2023-05-06T10:52:55.391Z,1.37
2023-05-06T10:55:30.023Z,1.57
2023-05-06T10:57:58.517Z,1.20
2023-05-06T11:00:26.134Z,1.20
2023-05-06T11:02:58.109Z,1.20
2023-05-06T11:05:25.755Z,1.10
2023-05-06T11:07:53.564Z,1.10
2023-05-06T11:10:22.436Z,0.90
2023-05-06T11:12:50.896Z,1.27
2023-05-06T11:15:36.260Z,1.20
2023-05-06T11:18:21.870Z,1.23
2023-05-06T11:20:50.632Z,1.40
2023-05-06T11:23:20.262Z,2.03
2023-05-06T11:25:47.725Z,1.10
2023-05-06T11:28:15.458Z,1.30
2023-05-06T11:30:44.334Z,1.40
2023-05-06T11:33:16.306Z,1.40
2023-05-06T11:35:43.697Z,1.37
2023-05-06T11:38:11.172Z,1.20
2023-05-06T11:40:38.567Z,1.43
2023-05-06T11:43:15.207Z,1.30
2023-05-06T11:45:52.219Z,1.27
2023-05-06T11:48:19.671Z,1.30
2023-05-06T11:50:50.017Z,1.37
2023-05-06T11:53:18.934Z,1.33
2023-05-06T11:55:46.941Z,1.40
2023-05-06T11:58:18.091Z,1.20
2023-05-06T12:00:53.063Z,1.30
2023-05-06T12:03:21.294Z,1.30
2023-05-06T12:05:49.205Z,1.30
2023-05-06T12:08:26.702Z,1.17
2023-05-06T12:10:48.847Z,1.10
2023-05-06T12:13:16.443Z,1.20
2023-05-06T12:15:44.771Z,1.10
2023-05-06T12:18:13.226Z,1.03
2023-05-06T12:20:40.883Z,1.13
2023-05-06T12:23:15.902Z,0.97
2023-05-06T12:25:45.589Z,1.20
2023-05-06T12:28:19.420Z,1.07
2023-05-06T12:30:47.107Z,1.10
2023-05-06T12:33:14.543Z,1.53
2023-05-06T12:35:42.045Z,1.17
2023-05-06T12:38:10.740Z,1.10
2023-05-06T12:40:38.400Z,1.10
2023-05-06T12:43:06.114Z,1.30
2023-05-06T12:45:33.581Z,1.10
2023-05-06T12:48:09.405Z,1.00
2023-05-06T12:50:38.157Z,1.23
2023-05-06T12:53:05.993Z,1.10
2023-05-06T12:55:37.674Z,0.83
2023-05-06T12:58:06.553Z,1.00
2023-05-06T13:00:33.861Z,1.20
2023-05-06T13:03:01.661Z,1.20
2023-05-06T13:05:29.226Z,1.20
2023-05-06T13:07:56.684Z,1.20
2023-05-06T13:10:24.086Z,1.10
2023-05-06T13:12:51.515Z,1.10
2023-05-06T13:15:18.854Z,1.10
2023-05-06T13:17:46.315Z,1.03
2023-05-06T13:20:14.111Z,1.20
2023-05-06T13:22:53.843Z,1.00
2023-05-06T13:25:11.496Z,1.07
2023-05-06T13:27:38.913Z,1.00
2023-05-06T13:30:07.017Z,1.00
2023-05-06T13:32:34.447Z,1.00
2023-05-06T13:35:01.849Z,1.00
2023-05-06T13:37:29.209Z,0.80
2023-05-06T13:39:56.606Z,1.07
2023-05-06T13:42:24.072Z,1.00
2023-05-06T13:44:51.581Z,0.97
2023-05-06T13:47:18.956Z,0.87
2023-05-06T13:49:46.543Z,1.00
2023-05-06T13:52:13.893Z,1.03
2023-05-06T13:54:41.306Z,1.30
2023-05-06T13:57:08.660Z,1.10
2023-05-06T13:59:36.051Z,1.00
2023-05-06T14:02:07.036Z,1.10
2023-05-06T14:04:33.451Z,1.27
2023-05-06T14:07:00.963Z,1.10
2023-05-06T14:09:28.366Z,1.10
2023-05-06T14:11:55.741Z,1.00
2023-05-06T14:14:23.128Z,0.90
2023-05-06T14:16:52.154Z,1.00
2023-05-06T14:19:19.568Z,0.90
2023-05-06T14:21:46.937Z,1.23
2023-05-06T14:24:14.378Z,1.33
2023-05-06T14:26:42.440Z,1.07
2023-05-06T14:29:09.830Z,1.27
2023-05-06T14:31:37.288Z,1.10
2023-05-06T14:34:04.703Z,1.13
2023-05-06T14:36:32.106Z,1.53
2023-05-06T14:38:59.483Z,1.37
2023-05-06T14:41:26.877Z,1.50
2023-05-06T14:43:54.280Z,1.20
2023-05-06T14:46:21.941Z,1.33
2023-05-06T14:48:49.375Z,1.47
2023-05-06T14:51:16.776Z,1.10
2023-05-06T14:53:45.019Z,1.10
2023-05-06T14:56:12.516Z,1.53
2023-05-06T14:58:39.937Z,1.20
2023-05-06T15:01:07.372Z,1.50
2023-05-06T15:03:35.967Z,1.60
2023-05-06T15:06:03.423Z,1.63
2023-05-06T15:08:36.947Z,1.20
2023-05-06T15:11:04.565Z,1.37
2023-05-06T15:13:32.007Z,1.20
2023-05-06T15:16:05.486Z,3.10
2023-05-06T15:18:32.846Z,1.90
2023-05-06T15:21:01.213Z,1.40
2023-05-06T15:23:28.662Z,1.30
2023-05-06T15:25:57.911Z,1.70
2023-05-06T15:28:25.348Z,1.30
2023-05-06T15:30:52.747Z,1.70
2023-05-06T15:33:22.071Z,1.87
2023-05-06T15:35:49.457Z,1.70
2023-05-06T15:38:16.852Z,1.60
2023-05-06T15:40:45.769Z,1.20
2023-05-06T15:43:20.270Z,1.40
2023-05-06T15:45:42.180Z,1.50
2023-05-06T15:48:09.656Z,2.27
2023-05-06T15:50:37.468Z,1.30
2023-05-06T15:53:05.335Z,1.37
2023-05-06T15:55:42.366Z,1.53
2023-05-06T15:58:01.695Z,1.53
2023-05-06T16:00:29.068Z,1.50
2023-05-06T16:02:57.022Z,1.20
2023-05-06T16:05:24.443Z,1.70
2023-05-06T16:07:51.852Z,1.40
2023-05-06T16:10:19.231Z,1.53
2023-05-06T16:12:46.679Z,1.60
2023-05-06T16:15:14.048Z,1.30
2023-05-06T16:17:41.548Z,1.40
2023-05-06T16:20:11.219Z,1.83
2023-05-06T16:22:41.541Z,1.60
2023-05-06T16:25:08.986Z,1.70
2023-05-06T16:27:36.358Z,1.63
2023-05-06T16:30:03.834Z,1.47
2023-05-06T16:32:31.383Z,1.40
2023-05-06T16:34:59.310Z,1.40
2023-05-06T16:37:28.157Z,1.70
2023-05-06T16:39:55.979Z,1.50
2023-05-06T16:42:23.475Z,1.40
2023-05-06T16:44:51.431Z,1.10
2023-05-06T16:47:20.602Z,1.20
2023-05-06T16:49:48.056Z,1.70
2023-05-06T16:52:15.695Z,1.40
2023-05-06T16:54:43.096Z,1.43
2023-05-06T16:57:10.548Z,1.30
2023-05-06T16:59:38.223Z,1.30
2023-05-06T17:02:05.613Z,1.20
2023-05-06T17:04:32.974Z,1.47
2023-05-06T17:07:00.613Z,1.33
2023-05-06T17:09:27.946Z,1.40
2023-05-06T17:11:55.302Z,1.50
2023-05-06T17:14:22.861Z,1.20
2023-05-06T17:16:51.824Z,1.57
2023-05-06T17:19:19.189Z,1.53
2023-05-06T17:21:46.608Z,1.50
2023-05-06T17:24:14.083Z,1.40
2023-05-06T17:26:41.512Z,1.20
2023-05-06T17:29:08.983Z,1.17
2023-05-06T17:31:36.349Z,1.23
2023-05-06T17:34:03.656Z,1.37
2023-05-06T17:36:31.402Z,1.40
2023-05-06T17:39:02.853Z,1.17
2023-05-06T17:41:30.218Z,1.57
2023-05-06T17:43:57.617Z,1.50
2023-05-06T17:46:25.003Z,1.70
2023-05-06T17:48:52.379Z,1.80
2023-05-06T17:51:19.846Z,1.47
2023-05-06T17:53:47.227Z,1.40
2023-05-06T17:56:14.622Z,1.40
2023-05-06T17:58:42.005Z,1.13
2023-05-06T18:01:09.433Z,1.40
2023-05-06T18:03:36.907Z,1.47
2023-05-06T18:06:04.349Z,1.30
2023-05-06T18:08:31.668Z,1.90
2023-05-06T18:10:59.639Z,1.60
2023-05-06T18:13:27.111Z,1.40
2023-05-06T18:15:54.739Z,1.20
2023-05-06T18:18:22.116Z,1.40
2023-05-06T18:20:49.857Z,1.53
2023-05-06T18:23:17.182Z,1.10
2023-05-06T18:25:44.553Z,1.30
2023-05-06T18:28:11.971Z,1.40
2023-05-06T18:30:40.245Z,1.13
2023-05-06T18:33:07.768Z,2.07
2023-05-06T18:35:35.315Z,3.30
2023-05-06T18:38:02.728Z,1.87
2023-05-06T18:40:30.983Z,4.87
2023-05-06T18:42:58.549Z,3.23
2023-05-06T18:45:25.973Z,2.43
2023-05-06T18:47:53.453Z,2.73
2023-05-06T18:50:21.069Z,2.43
2023-05-06T18:52:48.582Z,1.50
2023-05-06T18:55:15.992Z,1.93
2023-05-06T18:57:43.373Z,2.13
2023-05-06T19:00:12.632Z,2.80
2023-05-06T19:02:40.203Z,2.03
2023-05-06T19:05:08.303Z,1.50
2023-05-06T19:07:35.984Z,1.50
2023-05-06T19:10:03.384Z,2.40
2023-05-06T19:12:31.038Z,1.57
2023-05-06T19:14:58.415Z,2.33
2023-05-06T19:17:25.852Z,1.30
2023-05-06T19:19:53.268Z,1.20
2023-05-06T19:22:20.652Z,1.43
2023-05-06T19:24:48.035Z,1.43
2023-05-06T19:27:15.843Z,1.30
2023-05-06T19:29:43.167Z,1.60
2023-05-06T19:32:10.569Z,1.40
2023-05-06T19:34:37.951Z,1.20
2023-05-06T19:37:05.321Z,1.40
2023-05-06T19:39:32.628Z,1.60
2023-05-06T19:42:00.060Z,1.57
2023-05-06T19:44:27.419Z,1.60
2023-05-06T19:46:54.809Z,1.30
2023-05-06T19:49:22.208Z,1.43
2023-05-06T19:51:49.594Z,1.93
2023-05-06T19:54:18.653Z,1.27
2023-05-06T19:56:46.017Z,1.33
2023-05-06T19:59:13.415Z,1.50
2023-05-06T20:01:40.916Z,1.60
2023-05-06T20:04:09.492Z,1.53
2023-05-06T20:06:36.808Z,1.50
2023-05-06T20:09:04.596Z,1.57
2023-05-06T20:11:32.047Z,1.50
2023-05-06T20:13:59.425Z,1.40
2023-05-06T20:16:26.841Z,1.53
2023-05-06T20:18:54.215Z,1.30
2023-05-06T20:21:21.554Z,1.30
2023-05-06T20:23:48.948Z,1.30
2023-05-06T20:26:16.333Z,1.30
2023-05-06T20:28:43.714Z,1.60
2023-05-06T20:31:11.210Z,1.60
2023-05-06T20:33:38.633Z,1.80
2023-05-06T20:36:06.056Z,1.50
2023-05-06T20:38:33.473Z,1.77
2023-05-06T20:41:02.646Z,1.50
2023-05-06T20:43:31.520Z,1.60
2023-05-06T20:45:58.996Z,1.30
2023-05-06T20:48:27.556Z,1.40
2023-05-06T20:50:56.821Z,1.70
2023-05-06T20:53:24.511Z,1.50
2023-05-06T20:55:52.074Z,1.40
2023-05-06T20:58:19.496Z,1.33
2023-05-06T21:00:46.927Z,1.60
2023-05-06T21:03:14.565Z,1.47
2023-05-06T21:05:41.988Z,1.40
2023-05-06T21:08:09.438Z,1.60
2023-05-06T21:10:36.807Z,1.93
2023-05-06T21:13:04.639Z,1.60
2023-05-06T21:15:32.324Z,1.30
2023-05-06T21:17:59.842Z,1.47
2023-05-06T21:20:27.291Z,1.67
2023-05-06T21:22:54.669Z,1.40
2023-05-06T21:25:22.066Z,1.80
2023-05-06T21:27:49.460Z,1.17
2023-05-06T21:30:17.225Z,1.37
2023-05-06T21:32:44.666Z,1.50
2023-05-06T21:35:12.624Z,1.50
2023-05-06T21:37:40.339Z,1.40
2023-05-06T21:40:08.214Z,1.50
2023-05-06T21:42:35.672Z,1.60
2023-05-06T21:45:03.636Z,1.50
2023-05-06T21:47:31.083Z,1.50
2023-05-06T21:49:58.508Z,1.60
2023-05-06T21:52:26.324Z,1.70
2023-05-06T21:54:54.566Z,1.40
2023-05-06T21:57:21.944Z,1.70
2023-05-06T21:59:49.335Z,1.60
2023-05-06T22:02:16.664Z,1.47
2023-05-06T22:04:44.082Z,1.53
2023-05-06T22:07:11.508Z,1.73
2023-05-06T22:09:38.895Z,1.50
2023-05-06T22:12:07.948Z,1.53
2023-05-06T22:14:41.125Z,1.77
2023-05-06T22:17:04.934Z,1.50
2023-05-06T22:19:32.306Z,1.20
2023-05-06T22:22:00.147Z,1.60
2023-05-06T22:24:27.746Z,1.90
2023-05-06T22:26:55.158Z,1.50
2023-05-06T22:29:22.536Z,1.50
2023-05-06T22:31:49.992Z,1.60
2023-05-06T22:34:17.418Z,1.70
2023-05-06T22:36:44.793Z,1.80
2023-05-06T22:39:12.249Z,1.60
2023-05-06T22:41:39.651Z,2.00
2023-05-06T22:44:07.402Z,1.63
2023-05-06T22:46:34.796Z,1.73
2023-05-06T22:49:03.825Z,1.60
2023-05-06T22:51:33.027Z,1.70
2023-05-06T22:54:00.639Z,1.50
2023-05-06T22:56:28.040Z,1.70
2023-05-06T22:58:55.448Z,1.50
2023-05-06T23:01:24.502Z,1.80
2023-05-06T23:03:51.929Z,1.83
2023-05-06T23:06:19.405Z,1.60
2023-05-06T23:08:46.809Z,1.60
2023-05-06T23:11:14.179Z,1.60
2023-05-06T23:13:41.571Z,1.57
2023-05-06T23:16:10.010Z,1.77
2023-05-06T23:18:37.399Z,1.77
2023-05-06T23:21:04.864Z,1.67
2023-05-06T23:23:32.608Z,1.60
2023-05-06T23:26:00.013Z,1.80
2023-05-06T23:28:28.463Z,1.67
2023-05-06T23:30:55.984Z,1.87
2023-05-06T23:33:23.396Z,1.53
2023-05-06T23:35:50.777Z,1.53
2023-05-06T23:38:18.183Z,1.80
2023-05-06T23:40:45.641Z,1.80
2023-05-06T23:43:13.038Z,1.67
2023-05-06T23:45:40.477Z,1.70
2023-05-06T23:48:07.989Z,1.70
2023-05-06T23:50:35.331Z,1.90
2023-05-06T23:53:02.719Z,1.80
2023-05-06T23:55:30.275Z,1.63
2023-05-06T23:57:57.658Z,1.63
